createdAt,value
2023-04-13T00:01:01.480Z,10.21
2023-04-13T00:03:33.526Z,10.15
2023-04-13T00:06:03.318Z,10.09
2023-04-13T00:08:36.707Z,10.07
2023-04-13T00:11:06.743Z,10.05
2023-04-13T00:13:41.423Z,10.04
2023-04-13T00:16:15.381Z,10.03
2023-04-13T00:18:48.171Z,10.06
2023-04-13T00:21:17.267Z,10.08
2023-04-13T00:23:45.512Z,10.07
2023-04-13T00:26:15.733Z,10.10
2023-04-13T00:28:44.661Z,10.14
2023-04-13T00:31:12.791Z,10.15
2023-04-13T00:33:42.080Z,10.14
2023-04-13T00:36:10.938Z,10.14
2023-04-13T00:38:38.854Z,10.14
2023-04-13T00:41:08.669Z,10.14
2023-04-13T00:43:36.879Z,10.17
2023-04-13T00:46:07.121Z,10.20
2023-04-13T00:48:37.196Z,10.22
2023-04-13T00:51:05.731Z,10.21
2023-04-13T00:53:33.734Z,10.19
2023-04-13T00:56:07.993Z,10.17
2023-04-13T00:58:37.873Z,10.17
2023-04-13T01:01:06.203Z,10.16
2023-04-13T01:03:40.006Z,10.15
2023-04-13T01:06:08.424Z,10.14
2023-04-13T01:08:38.765Z,10.15
2023-04-13T01:11:13.483Z,10.14
2023-04-13T01:14:02.392Z,10.05
2023-04-13T01:16:32.175Z,9.98
2023-04-13T01:19:01.231Z,9.91
2023-04-13T01:21:29.472Z,9.87
2023-04-13T01:24:09.987Z,9.88
2023-04-13T01:26:53.782Z,9.90
2023-04-13T01:29:21.715Z,9.91
2023-04-13T01:31:54.393Z,9.88
2023-04-13T01:34:23.371Z,9.85
2023-04-13T01:36:51.548Z,9.83
2023-04-13T01:39:20.167Z,9.86
2023-04-13T01:41:49.229Z,9.87
2023-04-13T01:44:18.498Z,9.84
2023-04-13T01:46:47.744Z,9.82
2023-04-13T01:49:40.261Z,9.88
2023-04-13T01:52:29.332Z,9.96
2023-04-13T01:54:57.933Z,10.00
2023-04-13T01:57:26.264Z,10.02
2023-04-13T01:59:54.456Z,9.97
2023-04-13T02:02:23.217Z,9.88
2023-04-13T02:04:52.199Z,9.86
2023-04-13T02:07:20.256Z,9.83
2023-04-13T02:09:50.324Z,9.82
2023-04-13T02:12:20.156Z,9.85
2023-04-13T02:14:50.370Z,9.87
2023-04-13T02:17:19.509Z,9.86
2023-04-13T02:19:47.537Z,9.91
2023-04-13T02:22:19.803Z,9.93
2023-04-13T02:24:50.762Z,9.94
2023-04-13T02:27:18.744Z,9.94
2023-04-13T02:29:48.156Z,9.92
2023-04-13T02:32:22.280Z,9.96
2023-04-13T02:34:51.646Z,10.01
2023-04-13T02:37:20.573Z,10.01
2023-04-13T02:39:50.454Z,10.04
2023-04-13T02:42:19.973Z,10.09
2023-04-13T02:44:50.103Z,10.15
2023-04-13T02:47:18.433Z,10.13
2023-04-13T02:49:46.453Z,10.13
2023-04-13T02:52:27.684Z,10.14
2023-04-13T02:55:03.068Z,10.10
2023-04-13T02:57:35.955Z,10.04
2023-04-13T03:00:10.366Z,10.00
2023-04-13T03:03:04.825Z,9.97
2023-04-13T03:05:37.328Z,9.96
2023-04-13T03:08:06.470Z,9.97
2023-04-13T03:10:37.379Z,10.00
2023-04-13T03:13:09.622Z,9.99
2023-04-13T03:15:37.799Z,10.00
2023-04-13T03:18:06.656Z,10.03
2023-04-13T03:20:37.977Z,10.04
2023-04-13T03:23:07.521Z,10.09
2023-04-13T03:25:37.771Z,10.17
2023-04-13T03:28:06.028Z,10.23
2023-04-13T03:30:38.102Z,10.29
2023-04-13T03:33:13.492Z,10.30
2023-04-13T03:35:41.824Z,10.32
2023-04-13T03:38:16.023Z,10.34
2023-04-13T03:40:46.638Z,10.31
2023-04-13T03:43:15.305Z,10.24
2023-04-13T03:45:46.584Z,10.19
2023-04-13T03:48:16.055Z,10.17
2023-04-13T03:50:44.153Z,10.16
2023-04-13T03:53:13.055Z,10.18
2023-04-13T03:55:42.075Z,10.19
2023-04-13T03:58:11.359Z,10.17
2023-04-13T04:00:41.733Z,10.18
2023-04-13T04:03:17.609Z,10.19
2023-04-13T04:05:54.206Z,10.17
2023-04-13T04:08:24.301Z,10.18
2023-04-13T04:10:54.223Z,10.14
2023-04-13T04:13:23.425Z,10.06
2023-04-13T04:15:54.598Z,10.09
2023-04-13T04:18:25.065Z,10.18
2023-04-13T04:20:54.648Z,10.22
2023-04-13T04:23:23.178Z,10.25
2023-04-13T04:25:59.790Z,10.27
2023-04-13T04:28:31.495Z,10.26
2023-04-13T04:31:01.630Z,10.29
2023-04-13T04:33:31.008Z,10.29
2023-04-13T04:36:01.781Z,10.24
2023-04-13T04:38:32.680Z,10.20
2023-04-13T04:41:03.780Z,10.21
2023-04-13T04:43:32.285Z,10.22
2023-04-13T04:46:04.563Z,10.27
2023-04-13T04:48:33.748Z,10.32
2023-04-13T04:51:04.105Z,10.38
2023-04-13T04:53:35.317Z,10.41
2023-04-13T04:56:04.430Z,10.36
2023-04-13T04:58:44.517Z,10.30
2023-04-13T05:01:12.917Z,10.25
2023-04-13T05:03:42.774Z,10.22
2023-04-13T05:06:32.408Z,10.18
2023-04-13T05:09:02.503Z,10.18
2023-04-13T05:11:31.070Z,10.24
2023-04-13T05:14:00.296Z,10.32
2023-04-13T05:16:30.557Z,10.36
2023-04-13T05:19:05.485Z,10.43
2023-04-13T05:21:53.649Z,10.50
2023-04-13T05:24:21.795Z,10.54
2023-04-13T05:26:50.855Z,10.60
2023-04-13T05:29:22.617Z,10.69
2023-04-13T05:31:51.776Z,10.78
2023-04-13T05:34:21.144Z,10.85
2023-04-13T05:37:02.299Z,10.91
2023-04-13T05:39:31.816Z,10.98
2023-04-13T05:42:01.565Z,11.00
2023-04-13T05:44:33.493Z,11.00
2023-04-13T05:47:02.585Z,10.99
2023-04-13T05:49:32.893Z,11.00
2023-04-13T05:52:04.048Z,11.02
2023-04-13T05:54:40.041Z,11.07
2023-04-13T05:57:09.974Z,11.11
2023-04-13T05:59:43.451Z,11.11
2023-04-13T06:02:12.000Z,11.07
2023-04-13T06:04:42.059Z,11.05
2023-04-13T06:07:16.630Z,11.07
2023-04-13T06:09:44.953Z,11.14
2023-04-13T06:12:20.715Z,11.23
2023-04-13T06:14:51.148Z,11.28
2023-04-13T06:17:19.250Z,11.33
2023-04-13T06:19:48.075Z,11.32
2023-04-13T06:22:16.107Z,11.33
2023-04-13T06:24:44.693Z,11.36
2023-04-13T06:27:14.188Z,11.42
2023-04-13T06:29:44.824Z,11.48
2023-04-13T06:32:13.667Z,11.50
2023-04-13T06:34:41.803Z,11.52
2023-04-13T06:37:11.004Z,11.53
2023-04-13T06:39:48.298Z,11.50
2023-04-13T06:42:21.276Z,11.45
2023-04-13T06:45:24.924Z,11.44
2023-04-13T06:47:56.085Z,11.51
2023-04-13T06:50:25.977Z,11.62
2023-04-13T06:52:54.747Z,11.67
2023-04-13T06:55:28.320Z,11.73
2023-04-13T06:57:59.109Z,11.75
2023-04-13T07:00:30.405Z,11.75
2023-04-13T07:03:02.277Z,11.78
2023-04-13T07:05:31.904Z,11.80
2023-04-13T07:08:05.879Z,11.83
2023-04-13T07:10:40.048Z,11.86
2023-04-13T07:13:16.449Z,11.88
2023-04-13T07:15:46.057Z,11.91
2023-04-13T07:18:16.905Z,11.88
2023-04-13T07:20:47.671Z,11.86
2023-04-13T07:23:20.165Z,11.91
2023-04-13T07:25:51.088Z,11.98
2023-04-13T07:28:25.134Z,12.04
2023-04-13T07:30:56.913Z,12.12
2023-04-13T07:33:27.454Z,12.15
2023-04-13T07:36:18.071Z,12.16
2023-04-13T07:38:51.886Z,12.11
2023-04-13T07:41:24.304Z,12.13
2023-04-13T07:43:58.535Z,12.20
2023-04-13T07:46:29.069Z,12.25
2023-04-13T07:49:00.826Z,12.32
2023-04-13T07:51:35.329Z,12.42
2023-04-13T07:54:05.279Z,12.43
2023-04-13T07:56:36.350Z,12.47
2023-04-13T07:59:06.797Z,12.54
2023-04-13T08:01:37.141Z,12.59
2023-04-13T08:04:07.470Z,12.55
2023-04-13T08:06:41.097Z,12.53
2023-04-13T08:16:55.480Z,12.71
2023-04-13T08:19:24.318Z,12.69
2023-04-13T08:21:54.950Z,12.71
2023-04-13T08:24:24.318Z,12.75
2023-04-13T08:26:55.243Z,12.78
2023-04-13T08:29:25.641Z,12.80
2023-04-13T08:31:58.460Z,12.79
2023-04-13T08:34:27.376Z,12.76
2023-04-13T08:36:55.853Z,12.73
2023-04-13T08:39:27.883Z,12.73
2023-04-13T08:41:57.850Z,12.70
2023-04-13T08:44:27.914Z,12.68
2023-04-13T08:46:59.670Z,12.64
2023-04-13T08:49:32.522Z,12.64
2023-04-13T08:52:09.208Z,12.62
2023-04-13T08:54:41.489Z,12.58
2023-04-13T08:57:18.087Z,12.54
2023-04-13T08:59:46.498Z,12.49
2023-04-13T09:02:14.715Z,12.48
2023-04-13T09:04:53.722Z,12.44
2023-04-13T09:07:29.604Z,12.42
2023-04-13T09:10:02.750Z,12.44
2023-04-13T09:12:33.725Z,12.45
2023-04-13T09:15:03.459Z,12.46
2023-04-13T09:17:34.241Z,12.48
2023-04-13T09:20:17.375Z,12.52
2023-04-13T09:22:45.895Z,12.56
2023-04-13T09:25:29.862Z,12.59
2023-04-13T09:27:58.323Z,12.65
2023-04-13T09:30:29.867Z,12.72
2023-04-13T09:33:03.848Z,12.75
2023-04-13T09:35:32.613Z,12.77
2023-04-13T09:38:00.630Z,12.80
2023-04-13T09:40:29.278Z,12.81
2023-04-13T09:43:01.369Z,12.83
2023-04-13T09:45:33.758Z,12.83
2023-04-13T09:48:03.294Z,12.82
2023-04-13T09:50:33.933Z,12.82
2023-04-13T09:53:04.492Z,12.80
2023-04-13T09:55:33.531Z,12.80
2023-04-13T09:58:10.900Z,12.79
2023-04-13T10:00:42.429Z,12.75
2023-04-13T10:03:12.264Z,12.71
2023-04-13T10:05:51.042Z,12.72
2023-04-13T10:08:36.615Z,12.70
2023-04-13T10:11:12.022Z,12.71
2023-04-13T10:13:42.904Z,12.68
2023-04-13T10:16:24.715Z,12.61
2023-04-13T10:19:08.487Z,12.51
2023-04-13T10:21:39.677Z,12.40
2023-04-13T10:24:12.124Z,12.30
2023-04-13T10:26:41.828Z,12.22
2023-04-13T10:29:11.774Z,12.21
2023-04-13T10:31:41.917Z,12.21
2023-04-13T10:34:10.822Z,12.20
2023-04-13T10:36:43.077Z,12.16
2023-04-13T10:39:11.504Z,12.12
2023-04-13T10:41:39.720Z,12.08
2023-04-13T10:44:08.028Z,12.07
2023-04-13T10:46:36.488Z,12.07
2023-04-13T10:49:04.931Z,12.06
2023-04-13T10:51:40.377Z,12.03
2023-04-13T10:54:09.028Z,11.99
2023-04-13T10:56:37.446Z,11.97
2023-04-13T10:59:05.585Z,11.92
2023-04-13T11:01:34.191Z,11.93
2023-04-13T11:04:05.924Z,11.91
2023-04-13T11:06:39.205Z,11.89
2023-04-13T11:09:13.097Z,11.91
2023-04-13T11:11:43.806Z,11.86
2023-04-13T11:14:20.711Z,11.83
2023-04-13T11:16:49.555Z,11.79
2023-04-13T11:19:19.086Z,11.79
2023-04-13T11:21:53.532Z,11.76
2023-04-13T11:24:27.107Z,11.75
2023-04-13T11:26:55.140Z,11.76
2023-04-13T11:29:24.281Z,11.76
2023-04-13T11:31:53.025Z,11.75
2023-04-13T11:34:29.198Z,11.73
2023-04-13T11:37:01.560Z,11.72
2023-04-13T11:39:32.355Z,11.68
2023-04-13T11:42:04.432Z,11.67
2023-04-13T11:44:34.247Z,11.69
2023-04-13T11:47:02.814Z,11.71
2023-04-13T11:49:31.990Z,11.74
2023-04-13T11:52:00.085Z,11.73
2023-04-13T11:54:28.996Z,11.74
2023-04-13T11:56:57.808Z,11.74
2023-04-13T11:59:29.143Z,11.75
2023-04-13T12:02:02.766Z,11.77
2023-04-13T12:04:41.033Z,11.77
2023-04-13T12:07:14.124Z,11.77
2023-04-13T12:15:15.396Z,11.87
2023-04-13T12:23:00.186Z,11.88
2023-04-13T12:25:36.483Z,11.88
2023-04-13T12:28:05.509Z,11.90
2023-04-13T12:30:35.006Z,11.91
2023-04-13T12:33:18.340Z,11.91
2023-04-13T12:35:46.401Z,11.96
2023-04-13T12:38:14.469Z,11.99
2023-04-13T12:40:42.740Z,12.01
2023-04-13T12:43:11.203Z,12.03
2023-04-13T12:45:39.692Z,12.02
2023-04-13T12:48:09.720Z,11.97
2023-04-13T12:50:39.920Z,11.96
2023-04-13T12:53:07.841Z,11.98
2023-04-13T12:55:36.199Z,12.00
2023-04-13T12:58:04.152Z,11.98
2023-04-13T13:00:32.344Z,11.96
2023-04-13T13:03:20.419Z,11.95
2023-04-13T13:05:49.181Z,11.98
2023-04-13T13:08:18.389Z,12.03
2023-04-13T13:10:54.001Z,12.11
2023-04-13T13:13:23.619Z,12.16
2023-04-13T13:15:52.372Z,12.21
2023-04-13T13:18:20.248Z,12.24
2023-04-13T13:20:49.396Z,12.26
2023-04-13T13:23:17.595Z,12.24
2023-04-13T13:26:04.375Z,12.20
2023-04-13T13:28:38.473Z,12.17
2023-04-13T13:31:08.042Z,12.12
2023-04-13T13:33:36.822Z,12.07
2023-04-13T13:36:05.190Z,12.05
2023-04-13T13:38:35.706Z,12.01
2023-04-13T13:41:04.638Z,12.02
2023-04-13T13:43:32.717Z,12.03
2023-04-13T13:46:05.515Z,12.08
2023-04-13T13:48:34.525Z,12.12
2023-04-13T13:51:21.239Z,12.15
2023-04-13T13:53:51.662Z,12.16
2023-04-13T13:56:21.281Z,12.16
2023-04-13T13:58:51.410Z,12.16
2023-04-13T14:01:19.942Z,12.17
2023-04-13T14:03:49.456Z,12.18
2023-04-13T14:06:18.672Z,12.22
2023-04-13T14:08:48.366Z,12.21
2023-04-13T14:11:16.685Z,12.15
2023-04-13T14:13:44.715Z,12.12
2023-04-13T14:16:21.362Z,12.11
2023-04-13T14:18:54.460Z,12.10
2023-04-13T14:21:26.803Z,12.10
2023-04-13T14:23:57.721Z,12.07
2023-04-13T14:26:27.156Z,12.05
2023-04-13T14:28:55.121Z,12.04
2023-04-13T14:31:23.619Z,12.05
2023-04-13T14:33:52.046Z,12.07
2023-04-13T14:36:21.261Z,12.12
2023-04-13T14:38:51.602Z,12.11
2023-04-13T14:41:19.712Z,12.09
2023-04-13T14:43:48.598Z,12.08
2023-04-13T14:46:21.606Z,12.06
2023-04-13T14:48:49.641Z,12.01
2023-04-13T14:51:18.477Z,11.96
2023-04-13T14:53:47.962Z,11.91
2023-04-13T14:56:16.567Z,11.88
2023-04-13T14:58:44.592Z,11.86
2023-04-13T15:01:19.105Z,11.84
2023-04-13T15:03:49.461Z,11.86
2023-04-13T15:06:18.856Z,11.87
2023-04-13T15:08:47.799Z,11.88
2023-04-13T15:11:18.918Z,11.90
2023-04-13T15:13:49.126Z,11.89
2023-04-13T15:16:17.505Z,11.88
2023-04-13T15:18:45.942Z,11.90
2023-04-13T15:21:15.578Z,11.87
2023-04-13T15:23:45.036Z,11.82
2023-04-13T15:26:17.443Z,11.82
2023-04-13T15:28:46.038Z,11.84
2023-04-13T15:31:14.095Z,11.80
2023-04-13T15:33:43.184Z,11.77
2023-04-13T15:36:15.975Z,11.78
2023-04-13T15:38:45.487Z,11.77
2023-04-13T15:41:13.454Z,11.75
2023-04-13T15:43:43.802Z,11.75
2023-04-13T15:46:11.956Z,11.78
2023-04-13T15:48:43.057Z,11.78
2023-04-13T15:51:12.392Z,11.74
2023-04-13T15:53:41.675Z,11.67
2023-04-13T15:56:10.208Z,11.62
2023-04-13T15:58:38.640Z,11.59
2023-04-13T16:01:08.186Z,11.59
2023-04-13T16:03:37.894Z,11.61
2023-04-13T16:06:07.355Z,11.61
2023-04-13T16:08:35.936Z,11.59
2023-04-13T16:11:04.268Z,11.57
2023-04-13T16:13:48.609Z,11.56
2023-04-13T16:16:24.087Z,11.57
2023-04-13T16:19:00.498Z,11.56
2023-04-13T16:21:30.440Z,11.59
2023-04-13T16:23:58.891Z,11.63
2023-04-13T16:26:27.742Z,11.61
2023-04-13T16:28:56.386Z,11.57
2023-04-13T16:31:24.761Z,11.51
2023-04-13T16:33:54.683Z,11.48
2023-04-13T16:36:27.324Z,11.46
2023-04-13T16:38:55.267Z,11.46
2023-04-13T16:41:23.704Z,11.43
2023-04-13T16:43:53.054Z,11.42
2023-04-13T16:46:22.422Z,11.41
2023-04-13T16:48:52.086Z,11.34
2023-04-13T16:51:20.605Z,11.31
2023-04-13T16:53:48.701Z,11.31
2023-04-13T16:56:17.254Z,11.32
2023-04-13T16:58:45.843Z,11.30
2023-04-13T17:01:14.651Z,11.28
2023-04-13T17:03:43.077Z,11.26
2023-04-13T17:06:11.665Z,11.27
2023-04-13T17:08:45.307Z,11.26
2023-04-13T17:11:14.732Z,11.18
2023-04-13T17:13:42.976Z,11.13
2023-04-13T17:16:14.314Z,11.11
2023-04-13T17:18:44.422Z,11.10
2023-04-13T17:21:13.936Z,11.11
2023-04-13T17:23:43.560Z,11.12
2023-04-13T17:26:13.294Z,11.10
2023-04-13T17:28:42.901Z,11.13
2023-04-13T17:31:11.051Z,11.17
2023-04-13T17:33:41.270Z,11.20
2023-04-13T17:36:09.508Z,11.22
2023-04-13T17:38:37.484Z,11.16
2023-04-13T17:41:11.391Z,11.11
2023-04-13T17:43:40.395Z,11.07
2023-04-13T17:46:08.981Z,11.04
2023-04-13T17:48:37.131Z,11.06
2023-04-13T17:51:11.064Z,11.10
2023-04-13T17:53:40.765Z,11.15
2023-04-13T17:56:15.680Z,11.15
2023-04-13T17:58:44.704Z,11.15
2023-04-13T18:01:12.834Z,11.13
2023-04-13T18:03:47.238Z,11.11
2023-04-13T18:06:16.036Z,11.09
2023-04-13T18:08:44.126Z,11.10
2023-04-13T18:11:13.352Z,11.10
2023-04-13T18:13:44.204Z,11.11
2023-04-13T18:16:14.424Z,11.11
2023-04-13T18:18:43.053Z,11.12
2023-04-13T18:21:19.676Z,11.13
2023-04-13T18:23:48.173Z,11.10
2023-04-13T18:26:16.811Z,11.06
2023-04-13T18:28:45.048Z,11.02
2023-04-13T18:31:13.553Z,10.97
2023-04-13T18:33:44.194Z,10.92
2023-04-13T18:36:16.880Z,10.89
2023-04-13T18:38:45.373Z,10.90
2023-04-13T18:41:13.924Z,10.91
2023-04-13T18:43:42.112Z,10.90
2023-04-13T18:46:11.451Z,10.93
2023-04-13T18:48:39.582Z,10.94
2023-04-13T18:51:10.009Z,10.90
2023-04-13T18:53:39.727Z,10.86
2023-04-13T18:56:07.657Z,10.83
2023-04-13T18:58:35.683Z,10.78
2023-04-13T19:01:03.903Z,10.74
2023-04-13T19:03:35.659Z,10.70
2023-04-13T19:06:04.367Z,10.71
2023-04-13T19:08:33.895Z,10.73
2023-04-13T19:11:02.152Z,10.73
2023-04-13T19:13:30.641Z,10.68
2023-04-13T19:16:07.170Z,10.62
2023-04-13T19:18:38.533Z,10.60
2023-04-13T19:21:06.856Z,10.59
2023-04-13T19:23:40.177Z,10.60
2023-04-13T19:26:08.769Z,10.58
2023-04-13T19:28:37.774Z,10.53
2023-04-13T19:31:06.056Z,10.53
2023-04-13T19:33:42.763Z,10.53
2023-04-13T19:36:11.588Z,10.49
2023-04-13T19:38:39.565Z,10.47
2023-04-13T19:41:09.604Z,10.46
2023-04-13T19:43:38.315Z,10.45
2023-04-13T19:46:06.522Z,10.45
2023-04-13T19:48:36.351Z,10.41
2023-04-13T19:51:05.152Z,10.39
2023-04-13T19:53:38.219Z,10.38
2023-04-13T19:56:07.728Z,10.38
2023-04-13T19:58:35.931Z,10.40
2023-04-13T20:01:06.775Z,10.42
2023-04-13T20:03:36.143Z,10.41
2023-04-13T20:06:06.838Z,10.42
2023-04-13T20:08:34.959Z,10.42
2023-04-13T20:11:07.510Z,10.41
2023-04-13T20:13:36.787Z,10.39
2023-04-13T20:16:05.042Z,10.38
2023-04-13T20:18:33.562Z,10.40
2023-04-13T20:21:01.519Z,10.40
2023-04-13T20:23:31.451Z,10.40
2023-04-13T20:26:04.688Z,10.39
2023-04-13T20:28:33.694Z,10.39
2023-04-13T20:31:02.124Z,10.39
2023-04-13T20:33:31.435Z,10.37
2023-04-13T20:35:59.700Z,10.35
2023-04-13T20:38:30.000Z,10.33
2023-04-13T20:40:59.520Z,10.31
2023-04-13T20:43:27.981Z,10.31
2023-04-13T20:45:58.724Z,10.32
2023-04-13T20:51:01.768Z,10.33
2023-04-13T20:53:30.048Z,10.34
2023-04-13T20:55:58.409Z,10.33
2023-04-13T20:58:29.386Z,10.32
2023-04-13T21:00:59.385Z,10.31
2023-04-13T21:03:31.103Z,10.33
2023-04-13T21:06:00.545Z,10.34
2023-04-13T21:08:28.699Z,10.33
2023-04-13T21:10:56.833Z,10.34
2023-04-13T21:13:28.928Z,10.38
2023-04-13T21:15:56.975Z,10.36
2023-04-13T21:18:28.946Z,10.36
2023-04-13T21:21:00.655Z,10.37
2023-04-13T21:23:29.008Z,10.32
2023-04-13T21:25:57.451Z,10.28
2023-04-13T21:28:25.692Z,10.28
2023-04-13T21:30:53.597Z,10.27
2023-04-13T21:33:23.761Z,10.29
2023-04-13T21:35:52.309Z,10.28
2023-04-13T21:38:20.837Z,10.29
2023-04-13T21:40:48.800Z,10.31
2023-04-13T21:43:17.202Z,10.32
2023-04-13T21:45:46.980Z,10.29
2023-04-13T21:48:15.062Z,10.26
2023-04-13T21:50:43.591Z,10.25
2023-04-13T21:53:11.562Z,10.24
2023-04-13T21:55:40.134Z,10.25
2023-04-13T21:58:08.434Z,10.26
2023-04-13T22:00:37.782Z,10.25
2023-04-13T22:03:06.340Z,10.21
2023-04-13T22:05:34.760Z,10.18
2023-04-13T22:08:03.528Z,10.13
2023-04-13T22:10:32.137Z,10.12
2023-04-13T22:13:01.687Z,10.12
2023-04-13T22:15:33.769Z,10.08
2023-04-13T22:18:05.457Z,10.06
2023-04-13T22:20:33.848Z,10.06
2023-04-13T22:23:02.446Z,10.06
2023-04-13T22:25:31.951Z,10.04
2023-04-13T22:28:00.053Z,10.01
2023-04-13T22:30:29.652Z,9.96
2023-04-13T22:32:58.119Z,9.92
2023-04-13T22:35:26.705Z,9.88
2023-04-13T22:37:59.780Z,9.84
2023-04-13T22:40:28.165Z,9.86
2023-04-13T22:42:56.075Z,9.88
2023-04-13T22:45:26.473Z,9.86
2023-04-13T22:47:54.691Z,9.84
2023-04-13T22:50:23.029Z,9.83
2023-04-13T22:52:55.392Z,9.83
2023-04-13T22:55:23.487Z,9.85
2023-04-13T22:57:51.648Z,9.86
2023-04-13T23:00:21.457Z,9.86
2023-04-13T23:03:09.329Z,9.82
2023-04-13T23:05:38.542Z,9.83
2023-04-13T23:08:06.695Z,9.87
2023-04-13T23:10:36.349Z,9.89
2023-04-13T23:13:04.811Z,9.87
2023-04-13T23:15:33.210Z,9.83
2023-04-13T23:18:02.818Z,9.79
2023-04-13T23:20:32.035Z,9.76
2023-04-13T23:23:00.947Z,9.73
2023-04-13T23:25:29.165Z,9.69
2023-04-13T23:27:58.123Z,9.63
2023-04-13T23:30:26.390Z,9.63
2023-04-13T23:32:54.995Z,9.65
2023-04-13T23:35:23.268Z,9.66
2023-04-13T23:37:51.332Z,9.65
2023-04-13T23:40:19.382Z,9.64
2023-04-13T23:42:47.588Z,9.68
2023-04-13T23:45:17.236Z,9.66
2023-04-13T23:47:45.237Z,9.62
2023-04-13T23:50:13.473Z,9.63
2023-04-13T23:52:42.550Z,9.67
2023-04-13T23:55:10.961Z,9.67
2023-04-13T23:57:40.363Z,9.65
